createdAt,value
2022-08-26T00:00:39.198Z,46.03
2022-08-26T00:01:39.178Z,44.88
2022-08-26T00:02:39.346Z,49.47
2022-08-26T00:03:39.231Z,48.95
2022-08-26T00:04:39.173Z,45.72
2022-08-26T00:05:39.158Z,44.67
2022-08-26T00:06:39.152Z,43.38
2022-08-26T00:07:39.142Z,42.96
2022-08-26T00:08:39.150Z,44.05
2022-08-26T00:09:40.272Z,46.23
2022-08-26T00:10:39.126Z,44.74
2022-08-26T00:11:39.107Z,45.05
2022-08-26T00:12:39.110Z,45.30
2022-08-26T00:13:39.126Z,46.32
2022-08-26T00:14:39.101Z,47.11
2022-08-26T00:15:39.082Z,46.45
2022-08-26T00:16:40.943Z,47.33
2022-08-26T00:17:40.401Z,47.67
2022-08-26T00:18:40.778Z,47.58
2022-08-26T00:19:39.079Z,47.82
2022-08-26T00:20:39.049Z,46.64
2022-08-26T00:21:39.047Z,44.90
2022-08-26T00:22:39.045Z,45.54
2022-08-26T00:23:39.038Z,45.02
2022-08-26T00:24:39.053Z,43.49
2022-08-26T00:25:39.027Z,47.68
2022-08-26T00:26:39.018Z,45.04
2022-08-26T00:27:39.001Z,47.52
2022-08-26T00:28:38.997Z,47.09
2022-08-26T00:29:39.010Z,46.56
2022-08-26T00:30:38.981Z,50.80
2022-08-26T00:31:39.041Z,47.31
2022-08-26T00:32:38.974Z,48.51
2022-08-26T00:33:38.975Z,48.90
2022-08-26T00:34:38.966Z,45.37
2022-08-26T00:35:38.950Z,44.07
2022-08-26T00:36:40.735Z,53.22
2022-08-26T00:37:38.942Z,53.27
2022-08-26T00:38:38.917Z,43.74
2022-08-26T00:39:38.975Z,47.67
2022-08-26T00:40:38.927Z,49.36
2022-08-26T00:41:38.904Z,44.40
2022-08-26T00:42:38.888Z,48.83
2022-08-26T00:43:47.759Z,44.49
2022-08-26T00:44:39.889Z,53.11
2022-08-26T00:45:38.949Z,52.66
2022-08-26T00:46:38.872Z,52.54
2022-08-26T00:47:38.868Z,50.47
2022-08-26T00:48:38.852Z,45.43
2022-08-26T00:49:38.852Z,50.41
2022-08-26T00:50:38.848Z,50.24
2022-08-26T00:51:38.852Z,54.68
2022-08-26T00:52:38.851Z,48.56
2022-08-26T00:53:38.824Z,50.88
2022-08-26T00:54:38.818Z,47.83
2022-08-26T00:55:38.810Z,49.12
2022-08-26T00:56:38.830Z,44.27
2022-08-26T00:57:38.795Z,48.28
2022-08-26T00:58:38.801Z,53.68
2022-08-26T00:59:38.973Z,51.39
2022-08-26T01:00:38.833Z,48.63
2022-08-26T01:01:38.787Z,45.04
2022-08-26T01:02:38.804Z,50.06
2022-08-26T01:03:38.768Z,51.22
2022-08-26T01:04:38.753Z,52.35
2022-08-26T01:05:38.739Z,45.79
2022-08-26T01:06:38.751Z,43.22
2022-08-26T01:07:38.758Z,53.53
2022-08-26T01:08:38.723Z,49.00
2022-08-26T01:09:38.722Z,49.10
2022-08-26T01:10:38.702Z,45.38
2022-08-26T01:11:38.706Z,52.92
2022-08-26T01:12:40.204Z,51.85
2022-08-26T01:13:38.682Z,50.49
2022-08-26T01:14:38.679Z,49.98
2022-08-26T01:15:38.669Z,56.34
2022-08-26T01:16:38.741Z,56.16
2022-08-26T01:17:38.658Z,52.49
2022-08-26T01:18:38.666Z,51.30
2022-08-26T01:19:38.642Z,55.71
2022-08-26T01:20:38.639Z,51.37
2022-08-26T01:21:40.536Z,52.82
2022-08-26T01:22:38.622Z,47.29
2022-08-26T01:23:38.622Z,46.73
2022-08-26T01:24:38.607Z,47.00
2022-08-26T01:25:38.591Z,44.62
2022-08-26T01:26:38.602Z,48.67
2022-08-26T01:27:38.601Z,48.52
2022-08-26T01:28:38.606Z,48.71
2022-08-26T01:29:38.602Z,48.95
2022-08-26T01:30:38.577Z,49.58
2022-08-26T01:31:39.081Z,47.01
2022-08-26T01:32:38.963Z,44.31
2022-08-26T01:33:42.205Z,50.18
2022-08-26T01:34:38.530Z,48.94
2022-08-26T01:35:38.535Z,49.98
2022-08-26T01:36:38.534Z,49.80
2022-08-26T01:37:39.102Z,49.03
2022-08-26T01:38:38.514Z,49.57
2022-08-26T01:39:38.513Z,49.09
2022-08-26T01:40:38.511Z,45.98
2022-08-26T01:41:38.498Z,44.20
2022-08-26T01:42:38.498Z,46.75
2022-08-26T01:43:38.483Z,45.02
2022-08-26T01:44:38.470Z,48.19
2022-08-26T01:45:38.521Z,48.50
2022-08-26T01:46:38.474Z,49.11
2022-08-26T01:47:38.475Z,47.38
2022-08-26T01:48:38.446Z,49.63
2022-08-26T01:49:38.442Z,47.24
2022-08-26T01:50:38.433Z,46.83
2022-08-26T01:51:38.421Z,45.08
2022-08-26T01:52:38.430Z,47.64
2022-08-26T01:53:38.414Z,46.81
2022-08-26T01:54:38.414Z,48.53
2022-08-26T01:55:38.405Z,50.48
2022-08-26T01:56:38.394Z,51.13
2022-08-26T01:57:38.419Z,53.31
2022-08-26T01:58:38.382Z,52.20
2022-08-26T01:59:38.370Z,45.31
2022-08-26T02:00:38.452Z,42.46
2022-08-26T02:01:38.361Z,46.44
2022-08-26T02:02:38.373Z,44.14
2022-08-26T02:03:38.727Z,50.82
2022-08-26T02:04:38.393Z,52.70
2022-08-26T02:05:38.344Z,49.18
2022-08-26T02:06:38.332Z,49.40
2022-08-26T02:07:38.346Z,47.43
2022-08-26T02:08:38.341Z,47.82
2022-08-26T02:09:38.437Z,49.21
2022-08-26T02:10:38.308Z,53.44
2022-08-26T02:11:38.309Z,53.43
2022-08-26T02:12:38.293Z,53.12
2022-08-26T02:13:38.300Z,55.62
2022-08-26T02:14:44.009Z,56.74
2022-08-26T02:15:38.277Z,51.03
2022-08-26T02:16:38.284Z,51.05
2022-08-26T02:17:38.264Z,53.93
2022-08-26T02:18:38.276Z,48.65
2022-08-26T02:19:38.249Z,47.50
2022-08-26T02:20:38.252Z,52.85
2022-08-26T02:21:38.237Z,53.52
2022-08-26T02:22:38.232Z,53.77
2022-08-26T02:23:38.254Z,54.08
2022-08-26T02:24:38.224Z,52.48
2022-08-26T02:25:38.217Z,52.73
2022-08-26T02:26:38.213Z,51.30
2022-08-26T02:27:38.203Z,52.32
2022-08-26T02:28:38.200Z,49.81
2022-08-26T02:29:38.189Z,53.23
2022-08-26T02:30:38.189Z,51.26
2022-08-26T02:31:38.246Z,51.77
2022-08-26T02:32:38.171Z,49.95
2022-08-26T02:33:38.162Z,52.23
2022-08-26T02:34:39.156Z,55.22
2022-08-26T02:35:38.176Z,52.89
2022-08-26T02:36:38.140Z,54.00
2022-08-26T02:37:38.136Z,52.96
2022-08-26T02:38:38.132Z,51.35
2022-08-26T02:39:38.124Z,50.33
2022-08-26T02:40:38.139Z,51.84
2022-08-26T02:41:44.920Z,52.08
2022-08-26T02:42:39.100Z,53.88
2022-08-26T02:43:38.095Z,53.20
2022-08-26T02:44:38.091Z,52.94
2022-08-26T02:45:38.087Z,51.14
2022-08-26T02:46:38.163Z,54.93
2022-08-26T02:47:38.068Z,52.62
2022-08-26T02:48:38.061Z,54.61
2022-08-26T02:49:38.055Z,54.24
2022-08-26T02:50:38.052Z,53.56
2022-08-26T02:51:38.065Z,55.47
2022-08-26T02:52:38.035Z,55.67
2022-08-26T02:53:38.031Z,57.69
2022-08-26T02:54:38.024Z,55.14
2022-08-26T02:55:38.008Z,53.70
2022-08-26T02:56:38.031Z,53.21
2022-08-26T02:57:38.004Z,53.72
2022-08-26T02:58:37.992Z,53.70
2022-08-26T02:59:37.992Z,50.10
2022-08-26T03:00:38.010Z,54.33
2022-08-26T03:01:38.016Z,52.55
2022-08-26T03:02:37.981Z,57.01
2022-08-26T03:03:37.959Z,53.97
2022-08-26T03:04:37.947Z,55.94
2022-08-26T03:05:37.943Z,56.06
2022-08-26T03:06:37.939Z,53.56
2022-08-26T03:07:37.959Z,55.70
2022-08-26T03:08:37.923Z,54.53
2022-08-26T03:09:37.924Z,54.28
2022-08-26T03:10:37.907Z,55.27
2022-08-26T03:11:37.978Z,56.42
2022-08-26T03:12:37.953Z,56.02
2022-08-26T03:13:37.911Z,55.04
2022-08-26T03:14:37.903Z,54.05
2022-08-26T03:15:37.878Z,57.78
2022-08-26T03:16:37.968Z,55.00
2022-08-26T03:17:37.884Z,56.27
2022-08-26T03:18:37.855Z,55.63
2022-08-26T03:19:37.851Z,57.36
2022-08-26T03:20:37.847Z,57.25
2022-08-26T03:21:37.832Z,56.09
2022-08-26T03:22:37.828Z,57.36
2022-08-26T03:23:37.840Z,56.25
2022-08-26T03:24:37.820Z,56.43
2022-08-26T03:25:37.799Z,55.07
2022-08-26T03:26:37.808Z,55.75
2022-08-26T03:27:37.795Z,56.20
2022-08-26T03:28:37.811Z,55.76
2022-08-26T03:29:37.819Z,56.67
2022-08-26T03:30:37.783Z,57.79
2022-08-26T03:31:37.817Z,56.63
2022-08-26T03:32:37.774Z,57.31
2022-08-26T03:33:37.783Z,57.38
2022-08-26T03:34:37.760Z,56.97
2022-08-26T03:35:37.751Z,55.65
2022-08-26T03:36:37.757Z,56.21
2022-08-26T03:37:37.734Z,57.94
2022-08-26T03:38:37.740Z,56.80
2022-08-26T03:39:37.738Z,58.48
2022-08-26T03:40:37.707Z,57.41
2022-08-26T03:41:37.711Z,57.61
2022-08-26T03:42:37.702Z,57.44
2022-08-26T03:43:37.690Z,55.60
2022-08-26T03:44:37.690Z,56.93
2022-08-26T03:45:37.694Z,57.25
2022-08-26T03:46:37.733Z,56.53
2022-08-26T03:47:37.672Z,58.14
2022-08-26T03:48:37.663Z,57.83
2022-08-26T03:49:37.671Z,57.81
2022-08-26T03:50:37.658Z,58.94
2022-08-26T03:51:38.868Z,57.62
2022-08-26T03:52:41.802Z,57.42
2022-08-26T03:53:39.627Z,56.79
2022-08-26T03:54:37.623Z,57.16
2022-08-26T03:55:37.623Z,55.50
2022-08-26T03:56:37.607Z,57.97
2022-08-26T03:57:37.603Z,57.43
2022-08-26T03:58:37.598Z,56.89
2022-08-26T03:59:37.575Z,57.73
2022-08-26T04:00:37.595Z,57.94
2022-08-26T04:01:37.658Z,55.84
2022-08-26T04:02:37.589Z,56.45
2022-08-26T04:03:37.570Z,57.17
2022-08-26T04:04:37.558Z,58.57
2022-08-26T04:05:37.559Z,56.87
2022-08-26T04:06:37.547Z,58.14
2022-08-26T04:07:37.534Z,60.05
2022-08-26T04:08:37.546Z,60.32
2022-08-26T04:09:37.530Z,58.76
2022-08-26T04:10:37.527Z,57.26
2022-08-26T04:11:38.620Z,56.23
2022-08-26T04:12:37.507Z,56.54
2022-08-26T04:13:37.514Z,58.50
2022-08-26T04:14:37.779Z,59.72
2022-08-26T04:15:37.491Z,57.86
2022-08-26T04:16:37.474Z,58.62
2022-08-26T04:17:37.458Z,59.77
2022-08-26T04:18:37.467Z,59.72
2022-08-26T04:19:38.470Z,60.11
2022-08-26T04:20:37.434Z,59.71
2022-08-26T04:21:37.435Z,59.31
2022-08-26T04:22:37.435Z,57.88
2022-08-26T04:23:47.317Z,57.17
2022-08-26T04:24:38.451Z,57.71
2022-08-26T04:25:37.406Z,58.95
2022-08-26T04:26:39.498Z,59.85
2022-08-26T04:27:38.402Z,59.05
2022-08-26T04:28:37.398Z,59.74
2022-08-26T04:29:37.391Z,60.51
2022-08-26T04:30:37.394Z,59.24
2022-08-26T04:31:37.445Z,59.97
2022-08-26T04:32:37.358Z,61.07
2022-08-26T04:33:37.350Z,58.32
2022-08-26T04:34:37.371Z,59.28
2022-08-26T04:35:37.347Z,59.85
2022-08-26T04:36:37.540Z,59.75
2022-08-26T04:37:37.334Z,58.81
2022-08-26T04:38:37.321Z,58.57
2022-08-26T04:39:37.318Z,59.02
2022-08-26T04:40:37.310Z,59.46
2022-08-26T04:41:37.295Z,60.95
2022-08-26T04:42:37.311Z,59.93
2022-08-26T04:43:37.282Z,60.62
2022-08-26T04:44:37.278Z,60.62
2022-08-26T04:45:37.382Z,59.51
2022-08-26T04:46:39.975Z,59.47
2022-08-26T04:47:38.292Z,59.72
2022-08-26T04:48:37.263Z,59.72
2022-08-26T04:49:37.258Z,58.40
2022-08-26T04:50:37.243Z,58.73
2022-08-26T04:51:37.233Z,58.91
2022-08-26T04:52:37.243Z,59.04
2022-08-26T04:53:37.214Z,57.95
2022-08-26T04:54:37.210Z,58.67
2022-08-26T04:55:39.700Z,58.55
2022-08-26T04:56:38.198Z,59.78
2022-08-26T04:57:37.187Z,58.74
2022-08-26T04:58:37.206Z,59.03
2022-08-26T04:59:39.331Z,58.04
2022-08-26T05:00:38.172Z,58.16
2022-08-26T05:01:39.687Z,58.33
2022-08-26T05:02:37.155Z,58.53
2022-08-26T05:03:37.185Z,57.16
2022-08-26T05:04:37.162Z,56.86
2022-08-26T05:05:37.144Z,57.82
2022-08-26T05:06:37.295Z,57.91
2022-08-26T05:07:37.122Z,57.21
2022-08-26T05:08:37.119Z,58.78
2022-08-26T05:09:37.154Z,57.80
2022-08-26T05:10:37.112Z,57.52
2022-08-26T05:11:37.094Z,58.60
2022-08-26T05:12:37.081Z,60.08
2022-08-26T05:13:37.087Z,58.73
2022-08-26T05:14:37.093Z,56.99
2022-08-26T05:15:37.112Z,56.66
2022-08-26T05:16:37.056Z,58.18
2022-08-26T05:17:37.045Z,58.60
2022-08-26T05:18:37.046Z,57.38
2022-08-26T05:19:37.042Z,58.53
2022-08-26T05:20:37.046Z,58.51
2022-08-26T05:21:37.034Z,59.02
2022-08-26T05:22:37.018Z,57.28
2022-08-26T05:23:37.006Z,55.53
2022-08-26T05:24:37.018Z,57.06
2022-08-26T05:25:37.035Z,56.33
2022-08-26T05:26:37.003Z,55.53
2022-08-26T05:27:36.990Z,56.18
2022-08-26T05:28:36.982Z,57.01
2022-08-26T05:29:36.974Z,57.00
2022-08-26T05:30:37.987Z,58.77
2022-08-26T05:31:36.963Z,58.99
2022-08-26T05:32:36.958Z,58.21
2022-08-26T05:33:36.962Z,57.17
2022-08-26T05:34:36.934Z,57.78
2022-08-26T05:35:36.934Z,56.39
2022-08-26T05:36:37.130Z,57.88
2022-08-26T05:37:36.919Z,58.75
2022-08-26T05:38:36.914Z,59.39
2022-08-26T05:39:36.923Z,56.74
2022-08-26T05:40:36.953Z,57.72
2022-08-26T05:41:38.446Z,57.33
2022-08-26T05:42:36.886Z,57.28
2022-08-26T05:43:36.874Z,57.76
2022-08-26T05:44:55.703Z,56.86
2022-08-26T05:45:40.226Z,56.86
2022-08-26T05:46:36.907Z,56.65
2022-08-26T05:47:36.868Z,57.11
2022-08-26T05:48:36.847Z,56.85
2022-08-26T05:49:36.842Z,57.12
2022-08-26T05:50:37.826Z,57.19
2022-08-26T05:51:36.834Z,56.26
2022-08-26T05:52:36.843Z,56.41
2022-08-26T05:53:36.813Z,57.14
2022-08-26T05:54:36.814Z,56.77
2022-08-26T05:55:36.803Z,58.18
2022-08-26T05:56:36.790Z,57.85
2022-08-26T05:57:40.463Z,57.41
2022-08-26T05:58:38.774Z,56.35
2022-08-26T05:59:36.769Z,55.49
2022-08-26T06:00:36.765Z,56.49
2022-08-26T06:01:36.783Z,55.68
2022-08-26T06:02:36.789Z,57.52
2022-08-26T06:03:36.753Z,57.78
2022-08-26T06:04:36.739Z,57.60
2022-08-26T06:05:39.182Z,57.22
2022-08-26T06:06:37.726Z,56.75
2022-08-26T06:07:36.726Z,56.98
2022-08-26T06:08:36.735Z,57.74
2022-08-26T06:09:36.726Z,56.55
2022-08-26T06:10:36.697Z,55.51
2022-08-26T06:11:36.714Z,56.32
2022-08-26T06:12:36.673Z,55.90
2022-08-26T06:13:36.682Z,55.83
2022-08-26T06:14:36.681Z,55.84
2022-08-26T06:15:37.745Z,54.84
2022-08-26T06:16:36.655Z,57.78
2022-08-26T06:17:36.654Z,57.32
2022-08-26T06:18:36.634Z,56.24
2022-08-26T06:19:36.661Z,57.14
2022-08-26T06:20:36.637Z,58.93
2022-08-26T06:21:36.626Z,57.53
2022-08-26T06:22:36.617Z,56.23
2022-08-26T06:23:36.617Z,55.63
2022-08-26T06:24:36.597Z,54.76
2022-08-26T06:25:36.605Z,54.66
2022-08-26T06:26:36.700Z,53.95
2022-08-26T06:27:36.581Z,54.21
2022-08-26T06:28:36.569Z,53.00
2022-08-26T06:29:36.572Z,53.33
2022-08-26T06:30:36.569Z,54.71
2022-08-26T06:31:36.557Z,54.34
2022-08-26T06:32:36.549Z,55.53
2022-08-26T06:33:36.558Z,53.46
2022-08-26T06:34:36.521Z,54.74
2022-08-26T06:35:36.541Z,54.13
2022-08-26T06:36:36.522Z,52.63
2022-08-26T06:37:36.517Z,53.95
2022-08-26T06:38:36.552Z,53.91
2022-08-26T06:39:36.507Z,52.77
2022-08-26T06:40:36.527Z,51.80
2022-08-26T06:41:39.085Z,53.74
2022-08-26T06:42:38.481Z,53.95
2022-08-26T06:43:36.474Z,52.28
2022-08-26T06:44:36.469Z,52.04
2022-08-26T06:45:36.461Z,51.63
2022-08-26T06:46:36.554Z,51.87
2022-08-26T06:47:36.441Z,52.15
2022-08-26T06:48:36.450Z,52.52
2022-08-26T06:49:36.501Z,51.89
2022-08-26T06:50:36.426Z,52.07
2022-08-26T06:51:36.465Z,51.60
2022-08-26T06:52:36.429Z,52.12
2022-08-26T06:53:36.413Z,50.77
2022-08-26T06:54:36.401Z,51.42
2022-08-26T06:55:36.400Z,51.97
2022-08-26T06:56:36.385Z,53.70
2022-08-26T06:57:37.753Z,52.08
2022-08-26T06:58:36.377Z,52.39
2022-08-26T06:59:36.389Z,52.18
2022-08-26T07:00:36.369Z,52.07
2022-08-26T07:01:36.403Z,62.89
2022-08-26T07:02:36.368Z,52.93
2022-08-26T07:03:39.494Z,53.80
2022-08-26T07:04:36.357Z,52.65
2022-08-26T07:05:36.325Z,54.60
2022-08-26T07:06:36.327Z,53.30
2022-08-26T07:07:36.331Z,55.26
2022-08-26T07:08:36.311Z,51.36
2022-08-26T07:09:36.308Z,52.04
2022-08-26T07:10:36.307Z,51.22
2022-08-26T07:11:37.295Z,51.45
2022-08-26T07:12:36.326Z,53.25
2022-08-26T07:13:36.275Z,54.13
2022-08-26T07:14:37.275Z,51.68
2022-08-26T07:15:36.295Z,52.49
2022-08-26T07:16:36.255Z,53.46
2022-08-26T07:17:36.282Z,51.48
2022-08-26T07:18:36.243Z,54.28
2022-08-26T07:19:36.235Z,51.75
2022-08-26T07:20:36.223Z,53.35
2022-08-26T07:21:36.227Z,52.86
2022-08-26T07:22:36.222Z,51.27
2022-08-26T07:23:36.227Z,52.47
2022-08-26T07:24:36.212Z,52.08
2022-08-26T07:25:36.211Z,53.43
2022-08-26T07:26:36.221Z,53.11
2022-08-26T07:27:36.189Z,51.66
2022-08-26T07:28:36.223Z,53.72
2022-08-26T07:29:36.231Z,53.17
2022-08-26T07:30:36.202Z,52.44
2022-08-26T07:31:39.257Z,52.92
2022-08-26T07:32:36.152Z,52.15
2022-08-26T07:33:36.135Z,52.13
2022-08-26T07:34:36.142Z,49.65
2022-08-26T07:35:36.120Z,52.31
2022-08-26T07:36:36.122Z,51.97
2022-08-26T07:37:39.320Z,51.52
2022-08-26T07:38:36.106Z,53.79
2022-08-26T07:39:36.129Z,52.82
2022-08-26T07:40:36.117Z,51.75
2022-08-26T07:41:36.103Z,52.83
2022-08-26T07:42:36.094Z,51.50
2022-08-26T07:43:36.074Z,51.91
2022-08-26T07:44:36.067Z,53.21
2022-08-26T07:45:36.086Z,53.26
2022-08-26T07:46:36.059Z,53.05
2022-08-26T07:47:36.043Z,52.45
2022-08-26T07:48:36.051Z,55.06
2022-08-26T07:49:36.091Z,53.67
2022-08-26T07:50:49.294Z,53.27
2022-08-26T07:51:37.024Z,50.33
2022-08-26T07:52:36.026Z,53.52
2022-08-26T07:53:36.035Z,53.66
2022-08-26T07:54:36.014Z,53.46
2022-08-26T07:55:36.013Z,53.19
2022-08-26T07:56:35.991Z,53.43
2022-08-26T07:57:35.979Z,53.00
2022-08-26T07:58:35.984Z,53.17
2022-08-26T07:59:35.978Z,52.06
2022-08-26T08:00:35.967Z,50.76
2022-08-26T08:01:35.976Z,51.40
2022-08-26T08:02:35.949Z,51.56
2022-08-26T08:03:35.947Z,52.76
2022-08-26T08:04:36.001Z,53.32
2022-08-26T08:05:35.945Z,51.23
2022-08-26T08:06:35.971Z,52.82
2022-08-26T08:07:44.479Z,52.30
2022-08-26T08:08:36.918Z,53.22
2022-08-26T08:09:35.899Z,51.28
2022-08-26T08:10:35.918Z,52.09
2022-08-26T08:11:35.894Z,53.34
2022-08-26T08:12:35.903Z,51.05
2022-08-26T08:13:35.874Z,52.61
2022-08-26T08:14:35.870Z,51.62
2022-08-26T08:15:35.862Z,51.36
2022-08-26T08:16:39.111Z,51.90
2022-08-26T08:17:36.868Z,52.90
2022-08-26T08:18:35.837Z,50.96
2022-08-26T08:19:39.011Z,49.52
2022-08-26T08:20:35.835Z,51.97
2022-08-26T08:21:35.842Z,51.58
2022-08-26T08:22:35.826Z,51.23
2022-08-26T08:23:35.819Z,51.76
2022-08-26T08:24:35.802Z,52.96
2022-08-26T08:25:35.802Z,51.30
2022-08-26T08:26:35.797Z,52.95
2022-08-26T08:27:35.806Z,51.03
2022-08-26T08:28:35.773Z,51.26
2022-08-26T08:29:35.773Z,50.70
2022-08-26T08:30:35.828Z,50.14
2022-08-26T08:32:37.767Z,50.19
2022-08-26T08:33:35.761Z,48.48
2022-08-26T08:34:35.782Z,51.13
2022-08-26T08:35:35.762Z,49.26
2022-08-26T08:36:36.214Z,50.00
2022-08-26T08:37:35.713Z,48.88
2022-08-26T08:38:35.714Z,51.18
2022-08-26T08:39:35.721Z,52.96
2022-08-26T08:40:35.820Z,51.61
2022-08-26T08:41:36.709Z,49.99
2022-08-26T08:42:35.689Z,48.90
2022-08-26T08:43:37.818Z,50.87
2022-08-26T08:44:35.700Z,51.63
2022-08-26T08:45:37.141Z,52.16
2022-08-26T08:46:36.700Z,52.91
2022-08-26T08:47:35.649Z,53.56
2022-08-26T08:48:35.649Z,51.41
2022-08-26T08:49:35.644Z,52.21
2022-08-26T08:50:35.645Z,50.57
2022-08-26T08:51:35.625Z,51.50
2022-08-26T08:52:36.642Z,48.59
2022-08-26T08:53:35.615Z,49.29
2022-08-26T08:54:35.613Z,47.50
2022-08-26T08:55:35.625Z,49.22
2022-08-26T08:56:35.601Z,50.23
2022-08-26T08:57:35.608Z,49.99
2022-08-26T08:58:35.601Z,48.12
2022-08-26T08:59:35.578Z,51.15
2022-08-26T09:00:39.155Z,49.18
2022-08-26T09:01:36.603Z,50.77
2022-08-26T09:02:35.605Z,52.51
2022-08-26T09:03:35.566Z,50.03
2022-08-26T09:04:35.552Z,49.15
2022-08-26T09:05:35.551Z,50.84
2022-08-26T09:06:35.550Z,47.74
2022-08-26T09:07:36.757Z,50.02
2022-08-26T09:08:36.595Z,50.81
2022-08-26T09:09:35.525Z,49.27
2022-08-26T09:10:35.521Z,51.15
2022-08-26T09:11:35.500Z,49.58
2022-08-26T09:12:35.508Z,48.62
2022-08-26T09:13:35.518Z,50.00
2022-08-26T09:14:35.489Z,51.65
2022-08-26T09:15:35.494Z,49.37
2022-08-26T09:16:35.566Z,50.38
2022-08-26T09:17:35.472Z,49.85
2022-08-26T09:18:35.481Z,47.83
2022-08-26T09:19:35.464Z,48.64
2022-08-26T09:20:35.466Z,49.07
2022-08-26T09:21:35.465Z,47.92
2022-08-26T09:22:35.454Z,50.43
2022-08-26T09:23:35.942Z,48.81
2022-08-26T09:24:39.571Z,48.02
2022-08-26T09:25:37.432Z,47.42
2022-08-26T09:26:35.430Z,49.84
2022-08-26T09:27:35.416Z,47.68
2022-08-26T09:28:35.417Z,47.04
2022-08-26T09:29:35.436Z,47.71
2022-08-26T09:30:35.452Z,46.41
2022-08-26T09:31:35.532Z,48.20
2022-08-26T09:32:35.389Z,44.88
2022-08-26T09:33:35.387Z,47.49
2022-08-26T09:34:35.384Z,49.18
2022-08-26T09:35:35.394Z,50.87
2022-08-26T09:36:39.200Z,46.21
2022-08-26T09:37:36.434Z,47.00
2022-08-26T09:38:35.358Z,49.37
2022-08-26T09:39:35.366Z,46.15
2022-08-26T09:40:35.494Z,45.65
2022-08-26T09:41:35.365Z,46.12
2022-08-26T09:42:35.369Z,47.26
2022-08-26T09:43:35.419Z,45.80
2022-08-26T09:44:35.349Z,45.29
2022-08-26T09:45:35.365Z,44.29
2022-08-26T09:46:35.451Z,43.01
2022-08-26T09:47:35.324Z,42.01
2022-08-26T09:48:36.037Z,45.91
2022-08-26T09:49:36.371Z,44.46
2022-08-26T09:50:36.320Z,44.23
2022-08-26T09:51:35.320Z,44.38
2022-08-26T09:52:35.305Z,45.34
2022-08-26T09:53:35.316Z,46.06
2022-08-26T09:54:35.297Z,46.26
2022-08-26T09:55:35.285Z,47.26
2022-08-26T09:56:35.297Z,46.85
2022-08-26T09:57:35.283Z,48.68
2022-08-26T09:58:35.277Z,47.51
2022-08-26T09:59:35.322Z,47.45
2022-08-26T10:00:35.273Z,47.39
2022-08-26T10:01:35.363Z,46.95
2022-08-26T10:02:35.262Z,48.21
2022-08-26T10:03:35.263Z,47.90
2022-08-26T10:04:35.299Z,45.77
2022-08-26T10:05:35.277Z,44.68
2022-08-26T10:06:35.241Z,45.58
2022-08-26T10:07:36.232Z,44.82
2022-08-26T10:08:35.233Z,44.92
2022-08-26T10:09:35.225Z,44.58
2022-08-26T10:10:35.230Z,44.64
2022-08-26T10:11:35.209Z,42.11
2022-08-26T10:12:35.214Z,46.62
2022-08-26T10:13:35.197Z,46.50
2022-08-26T10:14:35.218Z,46.02
2022-08-26T10:15:35.197Z,45.24
2022-08-26T10:16:35.259Z,45.79
2022-08-26T10:17:35.173Z,45.49
2022-08-26T10:18:35.184Z,46.25
2022-08-26T10:19:41.770Z,45.22
2022-08-26T10:20:36.180Z,44.01
2022-08-26T10:21:35.249Z,41.26
2022-08-26T10:22:35.160Z,46.08
2022-08-26T10:23:35.157Z,46.07
2022-08-26T10:24:35.177Z,45.14
2022-08-26T10:25:35.257Z,45.58
2022-08-26T10:26:35.144Z,44.29
2022-08-26T10:27:35.137Z,45.11
2022-08-26T10:28:35.145Z,44.38
2022-08-26T10:29:35.139Z,43.56
2022-08-26T10:30:35.145Z,44.54
2022-08-26T10:31:38.235Z,43.95
2022-08-26T10:32:36.113Z,43.66
2022-08-26T10:33:36.138Z,44.23
2022-08-26T10:34:35.118Z,42.71
2022-08-26T10:35:36.121Z,42.77
2022-08-26T10:36:43.083Z,47.68
2022-08-26T10:37:37.162Z,44.85
2022-08-26T10:38:35.089Z,42.98
2022-08-26T10:39:35.109Z,45.12
2022-08-26T10:40:35.184Z,42.32
2022-08-26T10:41:35.082Z,44.86
2022-08-26T10:42:35.109Z,42.54
2022-08-26T10:43:35.088Z,44.68
2022-08-26T10:44:35.098Z,42.75
2022-08-26T10:45:35.116Z,41.76
2022-08-26T10:46:35.090Z,43.56
2022-08-26T10:47:35.062Z,43.50
2022-08-26T10:48:35.239Z,43.80
2022-08-26T10:49:35.057Z,43.55
2022-08-26T10:50:35.053Z,42.71
2022-08-26T10:51:35.061Z,45.70
2022-08-26T10:52:35.053Z,45.81
2022-08-26T10:53:35.069Z,54.35
2022-08-26T10:54:35.045Z,44.85
2022-08-26T10:55:35.185Z,45.45
2022-08-26T10:56:35.034Z,45.47
2022-08-26T10:57:35.038Z,46.66
2022-08-26T10:58:35.037Z,43.77
2022-08-26T10:59:35.046Z,44.74
2022-08-26T11:00:35.024Z,42.32
2022-08-26T11:01:35.052Z,38.10
2022-08-26T11:02:36.054Z,40.61
2022-08-26T11:03:35.021Z,41.18
2022-08-26T11:04:35.288Z,43.24
2022-08-26T11:05:35.004Z,42.90
2022-08-26T11:06:36.995Z,43.60
2022-08-26T11:07:35.044Z,44.10
2022-08-26T11:08:34.989Z,43.03
2022-08-26T11:09:35.002Z,41.79
2022-08-26T11:10:35.022Z,43.04
2022-08-26T11:11:34.984Z,41.05
2022-08-26T11:12:35.009Z,42.89
2022-08-26T11:13:38.705Z,39.71
2022-08-26T11:14:45.990Z,38.36
2022-08-26T11:15:36.009Z,42.25
2022-08-26T11:16:35.019Z,45.35
2022-08-26T11:17:34.995Z,42.15
2022-08-26T11:18:34.978Z,41.59
2022-08-26T11:19:57.106Z,42.04
2022-08-26T11:20:36.978Z,43.40
2022-08-26T11:21:35.975Z,42.78
2022-08-26T11:22:34.970Z,42.42
2022-08-26T11:23:34.964Z,43.17
2022-08-26T11:24:34.961Z,42.65
2022-08-26T11:25:34.948Z,43.26
2022-08-26T11:26:36.289Z,44.15
2022-08-26T11:27:35.969Z,43.33
2022-08-26T11:28:34.950Z,44.95
2022-08-26T11:29:34.936Z,43.71
2022-08-26T11:30:34.940Z,41.13
2022-08-26T11:31:34.984Z,39.80
2022-08-26T11:32:34.958Z,43.06
2022-08-26T11:33:34.937Z,40.14
2022-08-26T11:34:34.936Z,39.45
2022-08-26T11:35:34.932Z,40.31
2022-08-26T11:36:34.912Z,45.44
2022-08-26T11:37:34.933Z,44.57
2022-08-26T11:38:34.930Z,47.07
2022-08-26T11:39:36.845Z,45.12
2022-08-26T11:40:34.926Z,43.75
2022-08-26T11:41:34.904Z,46.11
2022-08-26T11:42:34.926Z,46.16
2022-08-26T11:43:34.918Z,43.34
2022-08-26T11:44:34.903Z,44.21
2022-08-26T11:45:34.931Z,45.39
2022-08-26T11:46:34.886Z,43.56
2022-08-26T11:47:34.886Z,40.77
2022-08-26T11:48:34.894Z,42.58
2022-08-26T11:49:34.915Z,44.04
2022-08-26T11:50:34.886Z,43.91
2022-08-26T11:51:38.221Z,45.31
2022-08-26T11:52:35.866Z,44.29
2022-08-26T11:53:34.902Z,44.20
2022-08-26T11:54:35.624Z,43.80
2022-08-26T11:55:34.867Z,48.36
2022-08-26T11:56:34.841Z,44.55
2022-08-26T11:57:34.850Z,45.01
2022-08-26T11:58:34.837Z,45.74
2022-08-26T12:00:34.848Z,44.53
2022-08-26T12:01:34.826Z,45.79
2022-08-26T12:02:34.823Z,47.31
2022-08-26T12:03:34.905Z,48.98
2022-08-26T12:04:35.890Z,49.16
2022-08-26T12:05:34.842Z,47.70
2022-08-26T12:06:36.432Z,48.44
2022-08-26T12:07:35.806Z,48.83
2022-08-26T12:08:34.798Z,49.76
2022-08-26T12:09:34.795Z,50.30
2022-08-26T12:10:34.837Z,49.45
2022-08-26T12:11:34.795Z,50.53
2022-08-26T12:12:36.194Z,50.62
2022-08-26T12:13:35.787Z,51.33
2022-08-26T12:14:34.775Z,51.24
2022-08-26T12:15:34.772Z,50.34
2022-08-26T12:16:34.813Z,50.32
2022-08-26T12:17:34.758Z,50.54
2022-08-26T12:18:34.762Z,50.39
2022-08-26T12:19:34.751Z,49.21
2022-08-26T12:20:34.755Z,48.43
2022-08-26T12:21:35.111Z,50.64
2022-08-26T12:22:34.739Z,51.40
2022-08-26T12:23:34.735Z,51.91
2022-08-26T12:24:34.739Z,50.42
2022-08-26T12:25:36.122Z,51.59
2022-08-26T12:26:34.728Z,52.11
2022-08-26T12:27:34.710Z,48.64
2022-08-26T12:28:34.706Z,48.55
2022-08-26T12:29:34.698Z,48.32
2022-08-26T12:30:34.696Z,49.53
2022-08-26T12:31:34.736Z,49.28
2022-08-26T12:32:34.715Z,49.30
2022-08-26T12:33:34.682Z,51.77
2022-08-26T12:34:34.674Z,52.70
2022-08-26T12:35:34.674Z,50.79
2022-08-26T12:36:34.660Z,53.64
2022-08-26T12:37:34.663Z,52.94
2022-08-26T12:38:34.659Z,52.89
2022-08-26T12:39:34.652Z,51.30
2022-08-26T12:40:34.662Z,52.01
2022-08-26T12:41:34.634Z,52.42
2022-08-26T12:42:34.630Z,52.15
2022-08-26T12:43:34.647Z,51.56
2022-08-26T12:44:34.625Z,53.19
2022-08-26T12:45:35.454Z,52.85
2022-08-26T12:46:36.279Z,51.79
2022-08-26T12:47:42.645Z,50.99
2022-08-26T12:48:36.782Z,52.97
2022-08-26T12:49:34.598Z,49.86
2022-08-26T12:50:34.595Z,50.04
2022-08-26T12:51:34.589Z,48.53
2022-08-26T12:52:34.587Z,49.48
2022-08-26T12:53:34.578Z,49.33
2022-08-26T12:54:34.582Z,52.27